Observations for FAIRFORD RAF, United Kingdom (EGVA)

EGVA 250256Z AUTO 00000KT 9999 SCT080 00/M01 A2990 RMK AO2 SLP132 T00041011 56003 $ 
EGVA 250211Z AUTO 00000KT 9999 SCT046 01/M01 A2990 RMK AO2 SLP132 $
EGVA 250156Z AUTO 00000KT 9999 BKN043 00/M01 A2990 RMK AO2 SLP132 T00031013 $   
EGVA 250111Z AUTO 00000KT 9999 FEW033 BKN045 BKN055 00/M02 A2990 RMK AO2 SLP132$
EGVA 250101Z AUTO 00000KT 9999 SCT044 BKN060 00/M02 A2990 RMK AO2 SLP132 $
EGVA 250056Z AUTO 00000KT 9999 BKN044 BKN060 00/M02 A2990 RMK AO2 SLP132 T10041021 $
EGVA 250011Z AUTO 00000KT 9999 BKN040 M01/M03 A2990 RMK AO2 SLP132 $
EGVA 242356Z AUTO 00000KT 9999 CLR M01/M03 A2991 RMK AO2 SLP136 T10111031 10015 21024 400841024 50006 $ 
EGVA 242311Z AUTO 00000KT 9999 BKN045 00/M02 A2991 RMK AO2 PRESRR SLP136 $
EGVA 242321Z AUTO 00000KT 9999 SCT046 00/M01 A2991 RMK AO2 SLP136 $
EGVA 242256Z AUTO 00000KT 9999 CLR M01/M03 A2989 RMK AO2 SLP129 T10121028 $ 
EGVA 242156Z AUTO 00000KT 9999 CLR M02/M03 A2990 RMK AO2 SLP134 T10171034 $ 
EGVA 242056Z AUTO 00000KT 9999 CLR M01/M03 A2989 RMK AO2 SLP130 T10131033 50000 $   
EGVA 241956Z AUTO 00000KT 9999 CLR 01/M01 A2989 RMK AO2 SLP130 T00121014 $  
EGVA 241856Z AUTO 00000KT 9999 CLR M01/M03 A2989 RMK AO2 SLP130 T10101030 $ 
EGVA 241756Z AUTO 00000KT 9999 CLR 00/M03 A2989 RMK AO2 SLP130 T10051026 10084 21005 53004 $
EGVA 241656Z AUTO 00000KT 9999 CLR 02/M01 A2988 RMK AO2 SLP126 T00211012 $  
EGVA 241556Z AUTO 00000KT 9999 CLR 05/M01 A2988 RMK AO2 SLP125 T00541015 $  
EGVA 241456Z AUTO 00000KT 9999 CLR 07/M02 A2988 RMK AO2 SLP124 T00671017 53003 $
EGVA 241356Z AUTO 00000KT 9999 CLR 08/M02 A2987 RMK AO2 SLP121 T00811017 $  
EGVA 241256Z AUTO 00000KT 9999 CLR 07/M01 A2987 RMK AO2 SLP121 T00701012 $  
EGVA 241156Z AUTO 00000KT 9999 CLR 06/06 A2987 RMK AO2 SLP121 70001 T00640055 10064 21001 51014 $   
EGVA 241056Z AUTO 00000KT 9999 CLR 05/04 A2987 RMK AO2 SLP121 T00470040 $   
EGVA 240956Z AUTO 00000KT 9999 CLR 03/02 A2985 RMK AO2 SLP115 T00250018 $   
EGVA 240856Z AUTO 00000KT 9999 CLR 02/01 A2983 RMK AO2 SLP108 T00200013 52020 $ 
EGVA 240828Z AUTO 00000KT 0800 R27/0450V1200 M CLR 00/M01 A2982 RMK AO2 SLP105 $
EGVA 240831Z AUTO 00000KT 2000 M CLR 01/00 A2983 RMK AO2 VIS 0400V2000 SLP108 $
EGVA 240836Z AUTO 00000KT 8000 M CLR 01/00 A2983 RMK AO2 SLP108 $
EGVA 240809Z AUTO 00000KT 0400 R27/0300V0750 M CLR 01/00 A2981 RMK AO2 SLP101 $
EGVA 240756Z AUTO 00000KT 0200 R27/0200V0300 FG CLR 01/00 A2981 RMK AO2 SLP101 T00061003 $  
EGVA 240725Z AUTO 00000KT 0600 R27/0400V0550 FG CLR 01/00 A2981 RMK AO2 SLP101 $
EGVA 240706Z AUTO 00000KT 1600 R27/0550V1300 M CLR 01/00 A2980 RMK AO2 VIS 0800V1600 SLP098 $
EGVA 240711Z AUTO 00000KT 1400 R27/0650V1100 BR CLR 02/01 A2980 RMK AO2 SLP098 $
EGVA 240720Z AUTO 00000KT 0800 R27/0400V0750 FG CLR 01/00 A2980 RMK AO2 SLP098 $
EGVA 240701Z AUTO 00000KT 1200 R27/0450V1300 M CLR 02/01 A2979 RMK AO2 SLP095 $
EGVA 240656Z AUTO 00000KT 0800 R27/0450V0650 M FEW110 02/01 A2979 RMK AO2 SLP095 T00160006 $
EGVA 240642Z AUTO 00000KT 5000 R27/1400 BR SCT110 02/01 A2978 RMK AO2 SLP091 $
EGVA 240644Z AUTO 00000KT 1800 R27/0900 BR SCT110 01/00 A2978 RMK AO2 VIS 1800V9999 SLP091 $
EGVA 240609Z AUTO 00000KT 4000 R27/1500 M BKN110 02/01 A2977 RMK AO2 VIS 4000V6000 SLP088 $
EGVA 240612Z AUTO 00000KT 5000 BR BKN110 02/01 A2977 RMK AO2 SLP088 $
EGVA 240602Z AUTO 00000KT 6000 M BKN110 02/01 A2977 RMK AO2 SLP088 $
EGVA 240645Z AUTO 00000KT 1400 R27/0500V1100 BR SCT110 01/00 A2979 RMK AO2 VIS 1400V9999 SLP095 $
EGVA 240650Z AUTO 00000KT 1000 R27/0450V0900 M SCT110 01/00 A2979 RMK AO2 VIS 1000V6000 SLP095 $
EGVA 240556Z AUTO 00000KT 4000 R27/1500 M SCT110 01/00 A2977 RMK AO2 VIS 3200V6000 SLP088 T00140004 10052 20013 52018 $ 
EGVA 240549Z AUTO 00000KT 4400 R27/1500 BR SCT110 02/01 A2976 RMK AO2 VIS 4400V9999 SLP084 $
EGVA 240550Z AUTO 00000KT 3600 R27/1400 BR SCT110 02/00 A2977 RMK AO2 VIS 3600V9999 SLP088 $
EGVA 240557Z AUTO 00000KT 4400 M SCT110 01/00 A2977 RMK AO2 VIS 3200V5000 SLP088 $
EGVA 240456Z AUTO 00000KT 9999 SCT095 03/02 A2974 RMK AO2 SLP077 T00280016 $
EGVA 240356Z AUTO 00000KT 9999 SCT095 04/03 A2972 RMK AO2 SLP070 T00430031 $
EGVA 240256Z AUTO 00000KT 9999 OVC090 04/03 A2971 RMK AO2 SLP067 T00440029 53010 $